• Join FlightAware (Why Join?)
  • Login
  • US Flag 
05:13AM EDT


 

Airport Tracker/Info


-or-


 

Live Flight TrackerFlight Track Log ✈ UAL1202 ✈ 11-Jun-2013 ✈ KLAX - KORD

Flight Track Log - Related Links

Times and Time Zones

All times are in EDT time to prevent confusion due to time zone crossing. See the UAL1202 flight status page for this flight to view local times or setup timezone preferences in your user account.

Time Position Orientation Groundspeed Altitude Reporting Facility
EDT Latitude Longitude Course Direction KTS MPH feet Rate Location/Type
02:33AM 33.8742 -118.5364 230° Southwest 247 284 4,800  Level Los Angeles Center
02:34AM 33.8164 -118.5539 194° South 271 312 7,100 2,700 Climbing Los Angeles Center
02:35AM 33.7258 -118.5283 167° South 281 323 10,400 2,520 Climbing Los Angeles Center
02:36AM 33.6747 -118.4492 128° Southeast 329 379 12,300 2,040 Climbing Los Angeles Center
02:37AM 33.6458 -118.3422 108° East 345 397 14,600 2,220 Climbing Los Angeles Center
02:38AM 33.6436 -118.2186 91° East 381 438 16,800 2,220 Climbing Los Angeles Center
02:39AM 33.6439 -118.0903 90° East 390 449 19,100 2,040 Climbing Los Angeles Center
02:40AM 33.6442 -117.9569 90° East 400 460 21,000 1,800 Climbing Los Angeles Center
02:41AM 33.6442 -117.8172 90° East 416 479 22,800 1,680 Climbing Los Angeles Center
02:42AM 33.6436 -117.6744 90° East 429 494 24,500 1,680 Climbing Los Angeles Center
02:43AM 33.6431 -117.5278 90° East 440 506 26,200 1,500 Climbing Los Angeles Center
02:44AM 33.6417 -117.3781 91° East 448 516 27,600 1,260 Climbing Los Angeles Center
02:45AM 33.6414 -117.2244 90° East 461 531 28,800 1,200 Climbing Los Angeles Center
02:46AM 33.6381 -117.0339 91° East 476 548 30,100 1,080 Climbing Los Angeles Center
02:47AM 33.6350 -116.8706 91° East 486 559 31,000 840 Climbing Los Angeles Center
02:48AM 33.6367 -116.7072 89° East 489 563 31,900 900 Climbing Los Angeles Center
02:49AM 33.6350 -116.5383 91° East 497 572 32,900 540 Climbing Los Angeles Center
02:50AM 33.6356 -116.3700 90° East 500 575 33,000  Climbing Los Angeles Center
02:51AM 33.6900 -116.2158 67° East 502 578 33,000 540 Level Los Angeles Center
02:52AM 33.7519 -116.0589 65° Northeast 514 592 34,200 1,140 Climbing Los Angeles Center
02:53AM 33.8125 -115.9053 65° Northeast 509 586 35,300 1,020 Climbing Los Angeles Center
02:54AM 33.8733 -115.7533 64° Northeast 505 581 36,300 780 Climbing Los Angeles Center
02:55AM 33.9331 -115.5997 65° Northeast 506 582 36,900 300 Climbing Los Angeles Center
02:56AM 33.9928 -115.4481 65° Northeast 503 579 37,000  Climbing Los Angeles Center
02:57AM 34.0514 -115.2969 65° Northeast 499 574 37,000 -60 Level Los Angeles Center
02:58AM 34.1117 -115.1461 64° Northeast 498 573 36,900  Descending Los Angeles Center
02:59AM 34.1697 -114.9972 65° Northeast 493 567 37,000  Climbing Los Angeles Center
03:00AM 34.2278 -114.8467 65° Northeast 492 566 36,900  Descending Los Angeles Center
03:01AM 34.2847 -114.6969 65° Northeast 493 567 37,000  Climbing Los Angeles Center
03:02AM 34.3425 -114.5472 65° Northeast 492 566 36,900 -60 Descending Los Angeles Center
03:03AM 34.3992 -114.3975 65° Northeast 489 563 36,900  Level Los Angeles Center
03:04AM 34.4553 -114.2492 65° Northeast 487 560 36,900  Level Los Angeles Center
03:05AM 34.5125 -114.0992 65° Northeast 489 563 37,000  Climbing Los Angeles Center
03:06AM 34.5569 -113.9811 65° Northeast 490 564 37,000  Level Albuquerque Center
03:07AM 34.6136 -113.8308 65° Northeast 491 565 37,000  Level Albuquerque Center
03:08AM 34.6711 -113.6783 65° Northeast 495 570 37,000  Level Albuquerque Center
03:09AM 34.7283 -113.5219 66° East 494 568 37,000  Level Albuquerque Center
03:10AM 34.7836 -113.3711 66° East 493 567 37,000  Level Albuquerque Center
03:11AM 34.8389 -113.2181 66° East 497 572 37,000  Level Albuquerque Center
03:12AM 34.8947 -113.0672 66° East 496 571 37,000  Level Albuquerque Center
03:13AM 34.9494 -112.9161 66° East 495 570 37,000  Level Albuquerque Center
03:14AM 35.0036 -112.7653 66° East 495 570 37,000  Level Albuquerque Center
03:15AM 35.0592 -112.6153 66° East 494 568 37,000  Level Albuquerque Center
03:16AM 35.1128 -112.4639 67° East 494 568 37,000  Level Albuquerque Center
03:17AM 35.1661 -112.3139 66° East 490 564 37,000  Level Albuquerque Center
03:18AM 35.2303 -112.1325 67° East 491 565 37,000  Level Albuquerque Center
03:19AM 35.2844 -111.9806 66° East 491 565 37,000  Level Albuquerque Center
03:20AM 35.3386 -111.8275 67° East 494 568 37,000  Level Albuquerque Center
03:21AM 35.3914 -111.6744 67° East 492 566 37,000  Level Albuquerque Center
03:22AM 35.4442 -111.5217 67° East 491 565 37,000  Level Albuquerque Center
03:23AM 35.5017 -111.3569 67° East 490 564 37,000  Level Albuquerque Center
03:24AM 35.5533 -111.2097 67° East 490 564 37,000  Level Albuquerque Center
03:25AM 35.6044 -111.0617 67° East 491 565 37,000  Level Albuquerque Center
03:26AM 35.6544 -110.9122 68° East 493 567 37,000  Level Albuquerque Center
03:27AM 35.7142 -110.7397 67° East 492 566 37,000  Level Albuquerque Center
03:28AM 35.7633 -110.5939 67° East 485 558 37,000  Level Albuquerque Center
03:29AM 35.8128 -110.4472 67° East 485 558 37,000  Level Albuquerque Center
03:30AM 35.8697 -110.2758 68° East 485 558 37,000  Level Albuquerque Center
03:31AM 35.9192 -110.1294 67° East 484 557 37,000  Level Albuquerque Center
03:32AM 35.9683 -109.9822 68° East 484 557 37,000  Level Albuquerque Center
03:33AM 36.0164 -109.8331 68° East 487 560 37,000  Level Albuquerque Center
03:34AM 36.0725 -109.6611 68° East 484 557 37,000  Level Albuquerque Center
03:35AM 36.1206 -109.5133 68° East 483 556 37,000  Level Albuquerque Center
03:36AM 36.1764 -109.3417 68° East 483 556 37,000  Level Denver Center
03:37AM 36.2250 -109.1922 68° East 483 556 37,000  Level Denver Center
03:38AM 36.2739 -109.0419 68° East 486 559 37,000  Level Denver Center
03:39AM 36.3231 -108.8886 68° East 491 565 37,000  Level Denver Center
03:40AM 36.3803 -108.7081 68° East 497 572 37,000  Level Denver Center
03:41AM 36.4286 -108.5539 69° East 497 572 37,000  Level Denver Center
03:42AM 36.4769 -108.3989 69° East 500 575 37,000  Level Denver Center
03:43AM 36.5239 -108.2453 69° East 498 573 37,000  Level Denver Center
03:44AM 36.5783 -108.0683 69° East 492 566 37,000  Level Denver Center
03:45AM 36.6250 -107.9181 69° East 488 562 37,000  Level Denver Center
03:46AM 36.6711 -107.7681 69° East 485 558 37,000  Level Denver Center
03:47AM 36.7244 -107.5947 69° East 481 554 37,000  Level Denver Center
03:48AM 36.7689 -107.4464 69° East 479 551 37,000  Level Denver Center
03:49AM 36.8144 -107.2967 69° East 482 555 37,000  Level Denver Center
03:50AM 36.8586 -107.1481 70° East 479 551 37,000  Level Denver Center
03:51AM 36.9114 -106.9736 69° East 480 552 37,000  Level Denver Center
03:53AM 36.9547 -106.8228 70° East 480 552 37,000  Level Denver Center
03:54AM 37.0014 -106.6744 68° East 479 551 37,000  Level Denver Center
03:55AM 37.0511 -106.5000 70° East 477 549 37,000  Level Denver Center
03:56AM 37.0953 -106.3525 69° East 475 547 37,000  Level Denver Center
03:57AM 37.1372 -106.2044 70° East 471 542 37,000  Level Denver Center
03:58AM 37.1867 -106.0286 71° East 479 551 37,000  Level Denver Center
03:59AM 37.2311 -105.8783 70° East 481 554 37,000  Level Denver Center
04:00AM 37.2789 -105.7119 70° East 478 550 37,000  Level Denver Center
04:01AM 37.3144 -105.5769 72° East 479 551 37,000  Level Denver Center
04:02AM 37.3639 -105.4017 70° East 477 549 37,000  Level Denver Center
04:03AM 37.4042 -105.2603 70° East 477 549 37,000  Level Denver Center
04:04AM 37.4533 -105.0831 71° East 480 552 37,000  Level Denver Center
04:05AM 37.4958 -104.9342 70° East 474 545 37,000  Level Denver Center
04:06AM 37.5372 -104.7819 71° East 478 550 37,000  Level Denver Center
04:07AM 37.5869 -104.5997 71° East 490 564 37,000  Level Denver Center
04:08AM 37.6292 -104.4458 71° East 485 558 37,000  Level Denver Center
04:09AM 37.6714 -104.2869 71° East 493 567 37,000  Level Denver Center
04:10AM 37.7158 -104.1281 70° East 496 571 37,000  Level Denver Center
04:11AM 37.7658 -103.9389 71° East 500 575 37,000  Level Denver Center
04:12AM 37.8083 -103.7769 72° East 501 577 37,000  Level Denver Center
04:13AM 37.8572 -103.5903 72° East 498 573 37,000  Level Denver Center
04:14AM 37.9056 -103.4033 72° East 499 574 37,000  Level Denver Center
04:15AM 37.9472 -103.2428 72° East 500 575 37,000  Level Denver Center
04:16AM 37.9881 -103.0828 72° East 499 574 37,000  Level Denver Center
04:17AM 38.0286 -102.9231 72° East 498 573 37,000  Level Denver Center
04:18AM 38.0769 -102.7383 72° East 495 570 37,000  Level Denver Center
04:19AM 38.1150 -102.5803 73° East 491 565 37,000  Level Denver Center
04:20AM 38.1547 -102.4211 72° East 492 566 37,000  Level Denver Center
04:21AM 38.2008 -102.2369 72° East 491 565 37,000  Level Denver Center
04:22AM 38.2408 -102.0775 72° East 492 566 37,000  Level Denver Center
04:23AM 38.2800 -101.9181 73° East 492 566 37,000  Level Denver Center
04:24AM 38.3189 -101.7589 73° East 492 566 37,000  Level Denver Center
04:25AM 38.3644 -101.5722 73° East 492 566 37,000  Level Denver Center
04:26AM 38.4025 -101.4111 73° East 495 570 37,000  Level Denver Center
04:27AM 38.4411 -101.2489 73° East 498 573 37,000  Level Denver Center
04:28AM 38.4869 -101.0603 73° East 498 573 37,000  Level Denver Center
04:29AM 38.5253 -100.8961 73° East 502 578 37,000  Level Denver Center
04:29AM 38.5450 -100.8114 73° East 502 578 37,000  Level Kansas City Center
04:30AM 38.5828 -100.6456 74° East 504 580 37,000  Level Kansas City Center
04:31AM 38.6017 -100.5658 73° East 506 582 37,000  Level Denver Center
04:32AM 38.6467 -100.3714 73° East 510 587 37,000  Level Denver Center
04:33AM 38.6844 -100.2058 74° East 506 582 37,000  Level Denver Center
04:34AM 38.7028 -100.1203 75° East 506 582 37,000  Level Kansas City Center
04:35AM 38.7408 -99.9558 73° East 504 580 37,000  Level Kansas City Center
04:36AM 38.7828 -99.7631 74° East 504 580 37,000  Level Kansas City Center
04:37AM 38.8200 -99.5994 74° East 500 575 37,000  Level Kansas City Center
04:38AM 38.8600 -99.4161 74° East 502 578 37,000  Level Kansas City Center
04:39AM 38.8981 -99.2433 74° East 503 579 37,000  Level Kansas City Center
04:40AM 38.9364 -99.0686 74° East 506 582 37,000  Level Kansas City Center
04:41AM 38.9736 -98.8958 74° East 502 578 37,000  Level Kansas City Center
04:42AM 39.0103 -98.7239 75° East 499 574 37,000  Level Kansas City Center
04:43AM 39.0472 -98.5511 75° East 500 575 37,000  Level Kansas City Center
04:44AM 39.0825 -98.3797 75° East 496 571 37,000  Level Kansas City Center
04:45AM 39.1194 -98.2067 75° East 498 573 37,000  Level Kansas City Center
04:46AM 39.1542 -98.0333 75° East 498 573 37,000  Level Kansas City Center
04:47AM 39.1939 -97.8489 74° East 500 575 37,000  Level Kansas City Center
04:48AM 39.2264 -97.6919 75° East 504 580 37,000  Level Kansas City Center
04:49AM 39.2650 -97.4961 76° East 507 583 37,000  Level Kansas City Center
04:50AM 39.2983 -97.3297 75° East 502 578 37,000  Level Kansas City Center
04:51AM 39.3317 -97.1606 76° East 505 581 37,000  Level Kansas City Center
04:52AM 39.3692 -96.9650 76° East 504 580 37,000  Level Kansas City Center
04:53AM 39.4019 -96.7975 76° East 502 578 37,000  Level Kansas City Center
04:54AM 39.4361 -96.6308 75° East 502 578 37,000  Level Kansas City Center
04:55AM 39.4692 -96.4597 76° East 501 577 37,000  Level Kansas City Center
04:56AM 39.5025 -96.2836 76° East 502 578 37,000  Level Kansas City Center
04:57AM 39.5364 -96.0978 77° East 504 580 37,000  Level Kansas City Center
04:58AM 39.5722 -95.9036 76° East 494 568 37,000  Level Kansas City Center
04:59AM 39.6031 -95.7386 76° East 491 565 37,000  Level Kansas City Center
05:00AM 39.6336 -95.5731 76° East 491 565 37,000  Level Kansas City Center
05:01AM 39.6644 -95.4083 76° East 488 562 37,000  Level Kansas City Center
05:02AM 39.6989 -95.2139 77° East 490 564 37,000  Level Kansas City Center
05:03AM 39.7286 -95.0472 77° East 492 566 37,000  Level Kansas City Center
05:04AM 39.7575 -94.8806 77° East 491 565 37,000  Level Kansas City Center
05:05AM 39.7919 -94.6867 77° East 492 566 37,000  Level Kansas City Center
05:06AM 39.8214 -94.5178 77° East 492 566 37,000  Level Kansas City Center
05:07AM 39.8500 -94.3528 77° East 494 568 37,000  Level Kansas City Center
05:08AM 39.8828 -94.1581 78° East 494 568 37,000  Level Kansas City Center
05:09AM 39.9097 -93.9892 78° East 498 573 37,000  Level Kansas City Center
05:10AM 39.9375 -93.8178 78° East 492 566 37,000  Level Kansas City Center
05:11AM 39.9717 -93.6486 75° East 489 563 37,000  Level Kansas City Center
05:12AM 40.0183 -93.4861 69° East 485 558 37,000  Level Kansas City Center
05:13AM 40.0617 -93.3208 71° East 485 558 37,000  Level Kansas City Center
05:14AM 40.1058 -93.1567 71° East 483 556 37,000  Level Kansas City Center
05:15AM 40.1547 -92.9708 71° East 484 557 37,000  Level Kansas City Center
05:16AM 40.1967 -92.8097 71° East 487 560 37,000  Level Kansas City Center
05:17AM 40.2378 -92.6500 71° East 486 559 37,000  Level Kansas City Center
05:18AM 40.2889 -92.4644 70° East 486 559 37,000  Level Kansas City Center
05:19AM 40.3272 -92.3064 72° East 494 568 37,000  Level Kansas City Center
05:20AM 40.3694 -92.1411 71° East 489 563 37,000  Level Kansas City Center
05:21AM 40.4108 -91.9761 72° East 482 555 37,000  Level Kansas City Center
05:22AM 40.4522 -91.8100 72° East 482 555 37,000  Level Kansas City Center
05:23AM 40.4944 -91.6422 72° East 486 559 37,000  Level Kansas City Center
05:24AM 40.5275 -91.5081 72° East 489 563 37,000  Level Chicago Center
05:25AM 40.5731 -91.3411 70° East 490 564 37,000  Level Chicago Center
05:25AM 40.5956 -91.2764 65° Northeast 487 560 37,000  Level Kansas City Center
05:26AM 40.6472 -91.1325 65° Northeast 487 560 37,000  Level Kansas City Center
05:27AM 40.6800 -91.0350 66° East 488 562 37,000 -180 Level Chicago Center
05:28AM 40.7344 -90.8731 66° East 485 558 36,800 -600 Descending Chicago Center
05:29AM 40.7903 -90.7100 66° East 485 558 35,800 -1,020 Descending Chicago Center
05:30AM 40.8450 -90.5467 66° East 485 558 34,800 -900 Descending Chicago Center
05:31AM 40.9011 -90.3803 66° East 492 566 34,000 -900 Descending Chicago Center
05:32AM 40.9600 -90.2050 66° East 487 560 33,000 -1,740 Descending Chicago Center
05:33AM 41.0106 -90.0500 67° East 484 557 30,500 -2,400 Descending Chicago Center
05:34AM 41.0631 -89.8878 67° East 476 548 28,200 -2,340 Descending Chicago Center
05:35AM 41.1147 -89.7300 66° East 461 531 25,900 -2,220 Descending Chicago Center
05:36AM 41.1642 -89.5781 67° East 457 526 23,800 -1,440 Descending Chicago Center
05:37AM 41.2206 -89.4394 62° Northeast 433 498 23,000 -420 Descending Chicago Center
05:38AM 41.2756 -89.3036 62° Northeast 415 478 23,000 -900 Level Chicago Center
05:39AM 41.3286 -89.1678 62° Northeast 420 483 21,300 -2,400 Descending Chicago Center
05:41AM 41.4503 -88.8631 62° Northeast 422 486 15,800 -2,580 Descending Chicago Center
05:42AM 41.5031 -88.7289 62° Northeast 410 472 13,500 -2,220 Descending Chicago Center
05:43AM 41.5589 -88.6022 59° Northeast 397 457 11,400 -1,260 Descending Chicago Center
05:44AM 41.6186 -88.4967 53° Northeast 356 410 11,000 -300 Descending Chicago Center
05:45AM 41.6750 -88.3953 53° Northeast 339 390 10,900 -480 Descending Chicago Center
05:46AM 41.7281 -88.2997 53° Northeast 320 368 10,100 -1,260 Descending Chicago Center
05:47AM 41.7889 -88.2247 43° Northeast 298 343 8,400 -1,560 Descending Chicago Center
05:48AM 41.8661 -88.1839 21° North 299 344 7,000 -720 Descending Chicago Center
05:49AM 41.9411 -88.1442 22° Northeast 291 335 7,000 -840 Level Chicago Center
05:50AM 42.0214 -88.1444 360° North 290 334 5,400 -1,440 Descending Chicago Center
05:51AM 42.0958 -88.1742 343° North 281 323 4,200 -720 Descending Chicago Center
05:52AM 42.1397 -88.1233 41° Northeast 249 287 4,000 -240 Descending Chicago Center